Putnam, Illinois
Current Conditions -  °F | °C
As of 5:10 PM on Wednesday 26 Nov 2014 (Local Time) from KC75 Reporting Station
Overcast Overcast  
Wind Chill: 20°   Ceiling: 1600
Heat Index: 27°   Visibility: 10mi
Dew Point: 22°   Wind: 6mph
Humidity: 82%   Direction: 60°ENE
Pressure: 30.11"   Gusts: NA
Location:  41.18°N, 89.4°W
Report Text: KC75 262310Z AUTO 06005KT 10SM BKN016 OVC080 M03/M05 A3011 RMK AO2 T10281055
Loading
Personal Weather Stations






























Interactive Weather Map New forecast layout! Learn more

10-Day Weather Forecast

Advertisements
Track Severe Weather on mobile